createdAt,value
2017-01-13T00:00:18.814Z,16.99
2017-01-13T00:01:28.734Z,16.99
2017-01-13T00:02:39.050Z,17.09
2017-01-13T00:03:48.984Z,16.9
2017-01-13T00:04:59.316Z,16.9
2017-01-13T00:06:09.630Z,16.9
2017-01-13T00:07:19.153Z,16.71
2017-01-13T00:08:29.470Z,16.9
2017-01-13T00:09:39.393Z,16.71
2017-01-13T00:10:49.704Z,16.9
2017-01-13T00:12:00.417Z,16.99
2017-01-13T00:13:11.134Z,16.99
2017-01-13T00:14:21.061Z,17.09
2017-01-13T00:15:31.387Z,16.9
2017-01-13T00:16:41.723Z,16.99
2017-01-13T00:17:51.243Z,16.8
2017-01-13T00:19:01.566Z,16.8
2017-01-13T00:20:11.489Z,16.71
2017-01-13T00:21:21.806Z,16.9
2017-01-13T00:22:32.516Z,16.71
2017-01-13T00:23:43.226Z,16.9
2017-01-13T00:24:53.940Z,16.71
2017-01-13T00:26:03.854Z,16.8
2017-01-13T00:27:14.190Z,16.9
2017-01-13T00:28:24.516Z,17.09
2017-01-13T00:29:34.840Z,16.8
2017-01-13T00:30:45.537Z,16.71
2017-01-13T00:31:55.063Z,16.9
2017-01-13T00:33:04.991Z,16.89
2017-01-13T00:34:14.920Z,16.9
2017-01-13T00:35:25.239Z,16.71
2017-01-13T00:36:35.563Z,16.71
2017-01-13T00:37:46.280Z,16.8
2017-01-13T00:38:56.199Z,16.9
2017-01-13T00:40:06.514Z,16.8
2017-01-13T00:41:17.224Z,16.8
2017-01-13T00:42:27.544Z,16.8
2017-01-13T00:43:37.860Z,16.9
2017-01-13T00:44:48.190Z,16.71
2017-01-13T00:45:57.711Z,16.9
2017-01-13T00:47:08.024Z,16.99
2017-01-13T00:48:18.335Z,16.99
2017-01-13T00:49:29.048Z,16.8
2017-01-13T00:50:39.783Z,16.8
2017-01-13T00:51:50.114Z,16.71
2017-01-13T00:53:00.427Z,16.61
2017-01-13T00:54:10.744Z,16.8
2017-01-13T00:55:20.264Z,16.71
2017-01-13T00:56:30.197Z,16.9
2017-01-13T00:57:39.745Z,16.8
2017-01-13T00:58:50.462Z,16.71
2017-01-13T01:00:00.373Z,16.71
2017-01-13T01:01:10.290Z,16.99
2017-01-13T01:02:20.611Z,16.8
2017-01-13T01:03:31.325Z,16.61
2017-01-13T01:04:42.030Z,16.71
2017-01-13T01:05:52.344Z,16.9
2017-01-13T01:07:03.076Z,16.8
2017-01-13T01:08:13.390Z,16.99
2017-01-13T01:09:23.310Z,16.9
2017-01-13T01:10:33.621Z,17.08
2017-01-13T01:11:44.337Z,16.8
2017-01-13T01:12:54.661Z,16.8
2017-01-13T01:14:04.971Z,16.9
2017-01-13T01:15:14.492Z,16.99
2017-01-13T01:16:24.814Z,16.8
2017-01-13T01:17:35.534Z,16.89
2017-01-13T01:18:45.848Z,17.09
2017-01-13T01:19:56.167Z,16.99
2017-01-13T01:21:06.081Z,16.99
2017-01-13T01:22:16.015Z,16.8
2017-01-13T01:23:26.731Z,16.9
2017-01-13T01:24:37.051Z,16.8
2017-01-13T01:25:47.362Z,16.8
2017-01-13T01:26:58.072Z,16.99
2017-01-13T01:28:08.388Z,16.99
2017-01-13T01:29:18.305Z,16.99
2017-01-13T01:30:29.009Z,16.9
2017-01-13T01:31:39.333Z,16.99
2017-01-13T01:32:49.646Z,16.89
2017-01-13T01:34:00.362Z,16.9
2017-01-13T01:35:10.286Z,16.9
2017-01-13T01:36:20.600Z,16.99
2017-01-13T01:37:30.131Z,17.08
2017-01-13T01:38:40.494Z,16.9
2017-01-13T01:39:50.406Z,17.09
2017-01-13T01:41:01.106Z,16.71
2017-01-13T01:42:11.410Z,16.61
2017-01-13T01:43:21.716Z,16.61
2017-01-13T01:44:32.424Z,16.9
2017-01-13T01:45:41.941Z,17.09
2017-01-13T01:46:52.658Z,16.99
2017-01-13T01:48:02.584Z,16.99
2017-01-13T01:49:12.894Z,17.09
2017-01-13T01:50:23.614Z,16.99
2017-01-13T01:51:33.925Z,17.09
2017-01-13T01:52:44.239Z,16.99
2017-01-13T01:53:54.573Z,17.09
2017-01-13T01:55:04.488Z,16.99
2017-01-13T01:56:14.808Z,16.99
2017-01-13T01:57:23.939Z,16.89
2017-01-13T01:58:34.260Z,16.99
2017-01-13T01:59:44.568Z,16.99
2017-01-13T02:00:54.885Z,16.99
2017-01-13T02:02:05.198Z,17.09
2017-01-13T02:03:15.519Z,16.89
2017-01-13T02:04:25.448Z,16.99
2017-01-13T02:05:36.158Z,17.08
2017-01-13T02:06:46.868Z,16.89
2017-01-13T02:07:57.181Z,17.08
2017-01-13T02:09:07.144Z,16.9
2017-01-13T02:10:16.698Z,16.8
2017-01-13T02:11:26.619Z,16.8
2017-01-13T02:12:36.931Z,16.99
2017-01-13T02:13:46.859Z,16.99
2017-01-13T02:14:57.170Z,16.99
2017-01-13T02:16:07.105Z,17.18
2017-01-13T02:17:17.032Z,16.89
2017-01-13T02:18:26.939Z,16.89
2017-01-13T02:19:37.256Z,16.8
2017-01-13T02:20:47.189Z,16.99
2017-01-13T02:21:57.509Z,16.99
2017-01-13T02:23:07.432Z,16.89
2017-01-13T02:24:17.748Z,16.7
2017-01-13T02:25:28.068Z,16.89
2017-01-13T02:26:38.384Z,16.9
2017-01-13T02:27:48.299Z,16.8
2017-01-13T02:28:59.016Z,16.8
2017-01-13T02:30:08.545Z,16.8
2017-01-13T02:31:18.460Z,17.18
2017-01-13T02:32:28.784Z,16.7
2017-01-13T02:33:38.722Z,16.99
2017-01-13T02:34:49.064Z,16.99
2017-01-13T02:35:58.978Z,16.99
2017-01-13T02:37:09.297Z,16.99
2017-01-13T02:38:18.026Z,16.99
2017-01-13T02:39:28.363Z,16.89
2017-01-13T02:40:39.078Z,16.9
2017-01-13T02:41:49.393Z,16.89
2017-01-13T02:42:59.697Z,16.89
2017-01-13T02:44:09.623Z,16.99
2017-01-13T02:45:19.943Z,16.8
2017-01-13T02:46:30.648Z,16.7
2017-01-13T02:47:41.352Z,16.8
2017-01-13T02:48:52.066Z,16.8
2017-01-13T02:50:02.402Z,16.8
2017-01-13T02:51:12.712Z,16.99
2017-01-13T02:52:23.419Z,16.89
2017-01-13T02:53:33.736Z,16.8
2017-01-13T02:54:44.043Z,16.89
2017-01-13T02:55:54.344Z,16.8
2017-01-13T02:57:03.870Z,16.89
2017-01-13T02:58:14.184Z,16.7
2017-01-13T02:59:24.110Z,16.89
2017-01-13T03:00:34.450Z,16.89
2017-01-13T03:01:44.770Z,16.8
2017-01-13T03:02:54.681Z,16.8
2017-01-13T03:04:05.388Z,16.99
2017-01-13T03:05:15.698Z,16.6
2017-01-13T03:06:25.224Z,17.09
2017-01-13T03:07:35.774Z,17.08
2017-01-13T03:08:45.688Z,16.99
2017-01-13T03:09:55.608Z,16.99
2017-01-13T03:11:05.151Z,16.8
2017-01-13T03:12:15.061Z,16.99
2017-01-13T03:13:24.981Z,17.18
2017-01-13T03:14:34.497Z,17.08
2017-01-13T03:15:45.205Z,17.08
2017-01-13T03:16:55.947Z,16.99
2017-01-13T03:18:06.261Z,16.8
2017-01-13T03:19:16.571Z,16.9
2017-01-13T03:20:27.125Z,17.08
2017-01-13T03:21:37.295Z,16.99
2017-01-13T03:22:47.598Z,17.37
2017-01-13T03:23:58.333Z,17.37
2017-01-13T03:25:08.664Z,17.27
2017-01-13T03:26:18.599Z,17.18
2017-01-13T03:27:29.556Z,17.47
2017-01-13T03:28:40.267Z,16.99
2017-01-13T03:29:50.974Z,17.37
2017-01-13T03:31:00.885Z,17.27
2017-01-13T03:32:10.811Z,17.08
2017-01-13T03:33:21.150Z,17.47
2017-01-13T03:34:31.470Z,17.37
2017-01-13T03:35:41.392Z,17.47
2017-01-13T03:36:52.107Z,17.08
2017-01-13T03:38:02.815Z,17.27
2017-01-13T03:39:13.515Z,17.56
2017-01-13T03:40:23.832Z,17.47
2017-01-13T03:41:33.740Z,17.18
2017-01-13T03:42:43.665Z,17.08
2017-01-13T03:43:54.366Z,17.27
2017-01-13T03:45:04.677Z,17.27
2017-01-13T03:46:15.390Z,17.27
2017-01-13T03:47:26.109Z,17.27
2017-01-13T03:48:36.811Z,17.56
2017-01-13T03:49:47.531Z,17.66
2017-01-13T03:50:57.867Z,17.37
2017-01-13T03:52:08.174Z,17.37
2017-01-13T03:53:17.707Z,17.47
2017-01-13T03:54:28.024Z,17.47
2017-01-13T03:55:38.342Z,17.47
2017-01-13T03:56:49.056Z,17.47
2017-01-13T03:57:59.780Z,17.66
2017-01-13T03:59:09.304Z,17.37
2017-01-13T04:00:18.817Z,17.56
2017-01-13T04:01:29.528Z,17.47
2017-01-13T04:02:39.869Z,17.56
2017-01-13T04:03:50.187Z,17.66
2017-01-13T04:05:00.106Z,17.76
2017-01-13T04:06:10.027Z,17.56
2017-01-13T04:07:19.941Z,17.47
2017-01-13T04:08:30.641Z,17.56
2017-01-13T04:09:40.555Z,17.47
2017-01-13T04:10:50.472Z,17.47
2017-01-13T04:12:00.793Z,17.76
2017-01-13T04:13:10.710Z,17.76
2017-01-13T04:14:21.013Z,17.56
2017-01-13T04:15:31.323Z,17.56
2017-01-13T04:16:41.633Z,17.47
2017-01-13T04:17:51.549Z,17.47
2017-01-13T04:19:01.870Z,17.66
2017-01-13T04:20:12.190Z,17.37
2017-01-13T04:21:22.494Z,17.56
2017-01-13T04:22:32.408Z,17.56
2017-01-13T04:23:43.115Z,17.56
2017-01-13T04:24:53.851Z,17.47
2017-01-13T04:26:03.768Z,17.56
2017-01-13T04:27:14.066Z,17.47
2017-01-13T04:28:23.995Z,17.47
2017-01-13T04:29:33.918Z,17.37
2017-01-13T04:30:44.625Z,17.56
2017-01-13T04:31:54.549Z,17.47
2017-01-13T04:33:04.865Z,17.56
2017-01-13T04:34:15.179Z,17.66
2017-01-13T04:35:25.895Z,17.94
2017-01-13T04:36:36.212Z,17.76
2017-01-13T04:37:46.120Z,17.66
2017-01-13T04:38:56.045Z,17.56
2017-01-13T04:40:06.753Z,17.56
2017-01-13T04:41:16.664Z,17.66
2017-01-13T04:42:25.397Z,17.94
2017-01-13T04:43:34.922Z,17.66
2017-01-13T04:44:45.630Z,17.76
2017-01-13T04:45:55.157Z,17.76
2017-01-13T04:47:05.857Z,17.66
2017-01-13T04:48:16.555Z,17.76
2017-01-13T04:49:25.293Z,17.66
2017-01-13T04:50:35.608Z,17.76
2017-01-13T04:51:45.547Z,17.66
2017-01-13T04:52:55.889Z,17.94
2017-01-13T04:54:06.907Z,17.76
2017-01-13T04:55:16.840Z,17.76
2017-01-13T04:56:27.555Z,17.56
2017-01-13T04:57:38.275Z,17.85
2017-01-13T04:58:48.218Z,17.56
2017-01-13T04:59:58.532Z,17.76
2017-01-13T05:01:08.454Z,17.76
2017-01-13T05:02:19.171Z,17.76
2017-01-13T05:03:29.088Z,17.66
2017-01-13T05:04:39.408Z,17.66
2017-01-13T05:05:49.724Z,17.66
2017-01-13T05:07:00.034Z,17.85
2017-01-13T05:08:10.358Z,17.76
2017-01-13T05:09:20.303Z,17.94
2017-01-13T05:10:30.223Z,17.47
2017-01-13T05:11:40.936Z,17.85
2017-01-13T05:12:51.257Z,17.76
2017-01-13T05:14:00.786Z,17.47
2017-01-13T05:15:10.699Z,17.47
2017-01-13T05:16:21.015Z,17.66
2017-01-13T05:17:31.335Z,17.47
2017-01-13T05:18:42.050Z,17.76
2017-01-13T05:19:51.969Z,17.76
2017-01-13T05:21:02.290Z,17.56
2017-01-13T05:22:12.597Z,17.85
2017-01-13T05:23:22.910Z,17.56
2017-01-13T05:24:33.271Z,17.57
2017-01-13T05:25:43.576Z,17.67
2017-01-13T05:26:53.505Z,17.76
2017-01-13T05:28:03.041Z,17.85
2017-01-13T05:29:13.358Z,17.47
2017-01-13T05:30:22.885Z,17.85
2017-01-13T05:31:33.595Z,17.66
2017-01-13T05:32:44.304Z,17.37
2017-01-13T05:33:54.244Z,17.76
2017-01-13T05:35:04.567Z,17.76
2017-01-13T05:36:14.491Z,17.56
2017-01-13T05:37:24.010Z,17.56
2017-01-13T05:38:34.736Z,17.66
2017-01-13T05:39:45.463Z,17.47
2017-01-13T05:40:55.412Z,17.76
2017-01-13T05:42:06.129Z,17.47
2017-01-13T05:43:16.062Z,17.67
2017-01-13T05:44:25.978Z,17.67
2017-01-13T05:45:36.311Z,17.38
2017-01-13T05:46:47.619Z,17.37
2017-01-13T05:47:58.330Z,17.67
2017-01-13T05:49:08.247Z,17.56
2017-01-13T05:50:18.568Z,17.67
2017-01-13T05:51:29.287Z,17.76
2017-01-13T05:52:39.597Z,17.76
2017-01-13T05:53:49.552Z,17.67
2017-01-13T05:54:59.872Z,17.67
2017-01-13T05:56:10.580Z,17.67
2017-01-13T05:57:21.296Z,17.47
2017-01-13T05:58:31.216Z,17.47
2017-01-13T05:59:41.139Z,17.47
2017-01-13T06:00:51.069Z,17.66
2017-01-13T06:02:00.996Z,17.67
2017-01-13T06:03:11.690Z,17.67
2017-01-13T06:04:22.410Z,17.96
2017-01-13T06:05:32.736Z,17.96
2017-01-13T06:06:43.060Z,17.76
2017-01-13T06:07:52.983Z,17.67
2017-01-13T06:09:03.693Z,17.67
2017-01-13T06:10:14.000Z,17.66
2017-01-13T06:11:23.952Z,17.66
2017-01-13T06:12:33.886Z,17.76
2017-01-13T06:13:44.599Z,17.67
2017-01-13T06:14:54.513Z,17.86
2017-01-13T06:16:04.832Z,17.67
2017-01-13T06:17:14.752Z,17.76
2017-01-13T06:18:25.092Z,17.66
2017-01-13T06:19:35.806Z,17.76
2017-01-13T06:20:46.119Z,17.96
2017-01-13T06:21:55.651Z,17.76
2017-01-13T06:23:05.175Z,17.76
2017-01-13T06:24:14.702Z,17.76
2017-01-13T06:25:25.015Z,17.76
2017-01-13T06:26:35.327Z,17.67
2017-01-13T06:27:45.641Z,17.86
2017-01-13T06:28:56.367Z,17.67
2017-01-13T06:30:07.085Z,17.86
2017-01-13T06:31:17.814Z,17.86
2017-01-13T06:32:28.133Z,17.86
2017-01-13T06:33:38.451Z,17.67
2017-01-13T06:34:49.189Z,17.67
2017-01-13T06:35:59.511Z,17.86
2017-01-13T06:37:10.220Z,17.67
2017-01-13T06:38:19.359Z,17.57
2017-01-13T06:39:30.076Z,17.67
2017-01-13T06:40:40.811Z,17.67
2017-01-13T06:41:50.755Z,17.96
2017-01-13T06:43:01.481Z,17.96
2017-01-13T06:44:11.817Z,17.96
2017-01-13T06:45:22.518Z,17.86
2017-01-13T06:46:32.857Z,17.96
2017-01-13T06:47:43.568Z,18.15
2017-01-13T06:48:54.275Z,18.05
2017-01-13T06:50:04.239Z,18.05
2017-01-13T06:51:14.557Z,18.05
2017-01-13T06:52:24.476Z,17.96
2017-01-13T06:53:34.432Z,17.96
2017-01-13T06:54:44.755Z,18.05
2017-01-13T06:55:55.471Z,17.96
2017-01-13T06:57:05.792Z,18.05
2017-01-13T06:58:16.532Z,17.96
2017-01-13T06:59:27.222Z,17.86
2017-01-13T07:00:37.535Z,17.96
2017-01-13T07:01:47.865Z,17.86
2017-01-13T07:02:57.397Z,17.96
2017-01-13T07:04:07.721Z,17.86
2017-01-13T07:05:17.635Z,18.05
2017-01-13T07:06:27.955Z,17.76
2017-01-13T07:07:37.910Z,17.96
2017-01-13T07:08:48.639Z,17.86
2017-01-13T07:09:58.973Z,18.05
2017-01-13T07:11:08.103Z,18.24
2017-01-13T07:12:18.840Z,18.44
2017-01-13T07:13:29.584Z,18.34
2017-01-13T07:14:39.523Z,18.34
2017-01-13T07:15:50.278Z,18.34
2017-01-13T07:17:00.595Z,18.44
2017-01-13T07:18:11.347Z,18.44
2017-01-13T07:19:21.315Z,18.44
2017-01-13T07:20:31.645Z,18.44
2017-01-13T07:21:41.984Z,18.34
2017-01-13T07:22:52.323Z,18.44
2017-01-13T07:24:03.043Z,18.53
2017-01-13T07:25:12.999Z,18.44
2017-01-13T07:26:23.322Z,18.53
2017-01-13T07:27:33.664Z,18.63
2017-01-13T07:28:43.597Z,18.63
2017-01-13T07:29:54.317Z,18.63
2017-01-13T07:31:05.056Z,18.53
2017-01-13T07:32:15.779Z,18.53
2017-01-13T07:33:26.126Z,18.63
2017-01-13T07:34:36.451Z,18.44
2017-01-13T07:35:46.377Z,18.53
2017-01-13T07:36:56.315Z,18.44
2017-01-13T07:38:06.622Z,18.63
2017-01-13T07:39:16.960Z,18.34
2017-01-13T07:40:27.694Z,18.34
2017-01-13T07:41:37.223Z,18.63
2017-01-13T07:42:47.544Z,18.53
2017-01-13T07:43:57.867Z,18.63
2017-01-13T07:45:08.596Z,18.53
2017-01-13T07:46:19.336Z,18.53
2017-01-13T07:47:30.113Z,18.73
2017-01-13T07:48:40.057Z,18.82
2017-01-13T07:49:50.379Z,18.91
2017-01-13T07:51:00.715Z,18.82
2017-01-13T07:52:11.077Z,18.82
2017-01-13T07:53:21.800Z,18.82
2017-01-13T07:54:31.768Z,18.82
2017-01-13T07:55:42.120Z,18.82
2017-01-13T07:56:52.447Z,18.91
2017-01-13T07:58:02.763Z,18.91
2017-01-13T07:59:13.490Z,18.91
2017-01-13T08:00:24.216Z,18.91
2017-01-13T08:01:34.559Z,18.91
2017-01-13T08:02:44.935Z,18.82
2017-01-13T08:03:55.682Z,19.01
2017-01-13T08:05:06.040Z,19.01
2017-01-13T08:06:16.374Z,18.82
2017-01-13T08:07:26.706Z,18.82
2017-01-13T08:08:37.420Z,19.01
2017-01-13T08:09:47.359Z,19.01
2017-01-13T08:10:58.108Z,18.91
2017-01-13T08:12:07.642Z,19.01
2017-01-13T08:13:18.339Z,19.11
2017-01-13T08:14:27.881Z,19.01
2017-01-13T08:15:38.239Z,19.2
2017-01-13T08:16:48.963Z,19.01
2017-01-13T08:17:58.893Z,19.01
2017-01-13T08:19:09.636Z,19.11
2017-01-13T08:20:19.965Z,19.21
2017-01-13T08:21:29.922Z,18.93
2017-01-13T08:22:39.471Z,19.01
2017-01-13T08:23:49.811Z,18.83
2017-01-13T08:25:00.557Z,19.12
2017-01-13T08:26:10.909Z,19.11
2017-01-13T08:27:21.232Z,18.83
2017-01-13T08:28:32.004Z,19.12
2017-01-13T08:29:41.927Z,19.12
2017-01-13T08:30:52.683Z,19.12
2017-01-13T08:32:03.028Z,18.93
2017-01-13T08:33:12.952Z,19.3
2017-01-13T08:34:23.744Z,19.11
2017-01-13T08:35:33.674Z,19.12
2017-01-13T08:36:44.016Z,19.12
2017-01-13T08:37:53.574Z,19.02
2017-01-13T08:39:03.911Z,18.63
2017-01-13T08:40:14.673Z,19.12
2017-01-13T08:41:24.605Z,19.21
2017-01-13T08:42:34.983Z,19.21
2017-01-13T08:43:45.736Z,19.31
2017-01-13T08:44:56.478Z,19.12
2017-01-13T08:46:07.243Z,19.21
2017-01-13T08:47:17.566Z,19.12
2017-01-13T08:48:27.499Z,19.21
2017-01-13T08:49:37.828Z,19.31
2017-01-13T08:50:48.571Z,19.5
2017-01-13T08:51:58.501Z,19.21
2017-01-13T08:53:08.465Z,19.4
2017-01-13T08:54:18.801Z,19.21
2017-01-13T08:55:29.131Z,19.21
2017-01-13T08:56:39.878Z,19.4
2017-01-13T08:57:49.815Z,19.5
2017-01-13T08:58:59.748Z,19.4
2017-01-13T09:00:10.094Z,19.31
2017-01-13T09:01:20.843Z,19.31
2017-01-13T09:02:31.564Z,19.31
2017-01-13T09:03:41.512Z,19.4
2017-01-13T09:04:51.893Z,19.4
2017-01-13T09:06:02.622Z,19.5
2017-01-13T09:07:12.949Z,19.31
2017-01-13T09:08:23.295Z,19.4
2017-01-13T09:09:33.240Z,19.7
2017-01-13T09:10:43.554Z,19.5
2017-01-13T09:11:53.506Z,19.6
2017-01-13T09:13:03.848Z,19.79
2017-01-13T09:14:13.387Z,19.79
2017-01-13T09:15:23.312Z,19.7
2017-01-13T09:16:33.627Z,19.7
2017-01-13T09:17:44.371Z,19.79
2017-01-13T09:18:55.084Z,19.79
2017-01-13T09:20:04.639Z,19.7
2017-01-13T09:21:15.385Z,19.5
2017-01-13T09:22:25.565Z,19.7
2017-01-13T09:23:35.925Z,19.7
2017-01-13T09:24:45.874Z,19.7
2017-01-13T09:25:55.813Z,19.6
2017-01-13T09:27:06.132Z,19.5
2017-01-13T09:28:15.679Z,19.7
2017-01-13T09:29:26.027Z,19.7
2017-01-13T09:30:35.167Z,19.4
2017-01-13T09:31:45.519Z,19.6
2017-01-13T09:32:55.848Z,19.4
2017-01-13T09:34:06.597Z,19.5
2017-01-13T09:35:16.520Z,19.5
2017-01-13T09:36:26.870Z,19.4
2017-01-13T09:37:37.595Z,19.5
2017-01-13T09:38:48.316Z,19.6
2017-01-13T09:39:57.852Z,19.7
2017-01-13T09:41:08.594Z,19.5
2017-01-13T09:42:18.914Z,19.31
2017-01-13T09:43:29.242Z,19.79
2017-01-13T09:44:39.551Z,19.6
2017-01-13T09:45:50.309Z,19.6
2017-01-13T09:47:00.276Z,19.6
2017-01-13T09:48:11.035Z,19.6
2017-01-13T09:49:20.582Z,19.4
2017-01-13T09:50:30.920Z,19.6
2017-01-13T09:51:41.256Z,19.4
2017-01-13T09:52:51.580Z,19.6
2017-01-13T09:54:01.920Z,19.5
2017-01-13T09:55:12.263Z,19.89
2017-01-13T09:56:23.007Z,19.6
2017-01-13T09:57:33.363Z,19.5
2017-01-13T09:58:44.102Z,19.7
2017-01-13T09:59:54.459Z,19.7
2017-01-13T10:01:04.428Z,19.89
2017-01-13T10:02:14.770Z,19.6
2017-01-13T10:03:24.731Z,19.7
2017-01-13T10:04:35.455Z,19.7
2017-01-13T10:05:45.785Z,19.7
2017-01-13T10:06:55.731Z,19.7
2017-01-13T10:08:05.663Z,19.7
2017-01-13T10:09:16.021Z,19.7
2017-01-13T10:10:25.569Z,19.6
2017-01-13T10:11:36.296Z,19.7
2017-01-13T10:12:47.020Z,19.7
2017-01-13T10:13:57.750Z,19.7
2017-01-13T10:15:07.694Z,19.6
2017-01-13T10:16:18.037Z,19.7
2017-01-13T10:17:28.804Z,19.7
2017-01-13T10:18:39.154Z,19.7
2017-01-13T10:19:49.895Z,19.6
2017-01-13T10:21:00.247Z,19.79
2017-01-13T10:22:10.179Z,19.7
2017-01-13T10:23:20.509Z,19.79
2017-01-13T10:24:30.839Z,19.79
2017-01-13T10:25:41.594Z,19.79
2017-01-13T10:26:51.916Z,19.79
2017-01-13T10:28:02.646Z,19.6
2017-01-13T10:29:12.582Z,19.7
2017-01-13T10:30:22.913Z,19.7
2017-01-13T10:31:32.841Z,19.7
2017-01-13T10:32:43.161Z,19.7
2017-01-13T10:33:53.502Z,19.79
2017-01-13T10:35:04.246Z,19.7
2017-01-13T10:36:14.172Z,19.7
2017-01-13T10:37:24.092Z,19.89
2017-01-13T10:38:33.628Z,19.6
2017-01-13T10:39:44.361Z,19.6
2017-01-13T10:40:53.894Z,19.79
2017-01-13T10:42:04.217Z,19.7
2017-01-13T10:43:14.147Z,19.6
2017-01-13T10:44:24.466Z,19.79
2017-01-13T10:45:34.796Z,19.6
2017-01-13T10:46:45.532Z,19.7
2017-01-13T10:47:56.235Z,19.79
2017-01-13T10:49:06.587Z,19.7
2017-01-13T10:50:16.921Z,19.89
2017-01-13T10:51:27.246Z,19.6
2017-01-13T10:52:37.567Z,19.7
2017-01-13T10:53:47.506Z,19.7
2017-01-13T10:54:57.829Z,19.79
2017-01-13T10:56:07.754Z,19.6
2017-01-13T10:57:17.682Z,19.6
2017-01-13T10:58:28.410Z,19.7
2017-01-13T10:59:39.150Z,19.7
2017-01-13T11:00:49.089Z,19.7
2017-01-13T11:01:59.432Z,19.7
2017-01-13T11:03:09.752Z,19.6
2017-01-13T11:04:20.072Z,19.89
2017-01-13T11:05:30.393Z,19.79
2017-01-13T11:06:40.335Z,19.89
2017-01-13T11:07:50.674Z,19.7
2017-01-13T11:09:01.067Z,19.7
2017-01-13T11:10:11.004Z,19.7
2017-01-13T11:11:20.933Z,19.7
2017-01-13T11:12:31.675Z,19.79
2017-01-13T11:13:41.999Z,19.7
2017-01-13T11:14:52.328Z,19.7
2017-01-13T11:16:02.668Z,19.7
2017-01-13T11:17:13.631Z,19.7
2017-01-13T11:18:23.958Z,19.79
2017-01-13T11:19:33.922Z,19.7
2017-01-13T11:20:44.255Z,19.7
2017-01-13T11:21:53.413Z,19.7
2017-01-13T11:23:04.130Z,19.6
2017-01-13T11:24:13.666Z,19.7
2017-01-13T11:25:23.979Z,19.79
2017-01-13T11:26:34.697Z,19.6
2017-01-13T11:27:44.641Z,19.6
2017-01-13T11:28:54.977Z,19.6
2017-01-13T11:30:05.315Z,19.7
2017-01-13T11:31:15.281Z,19.6
2017-01-13T11:32:26.061Z,19.6
2017-01-13T11:33:36.393Z,19.79
2017-01-13T11:34:46.759Z,19.6
2017-01-13T11:35:56.309Z,19.7
2017-01-13T11:37:06.658Z,19.7
2017-01-13T11:38:16.988Z,19.79
2017-01-13T11:39:27.314Z,19.89
2017-01-13T11:40:36.853Z,19.7
2017-01-13T11:41:46.386Z,19.89
2017-01-13T11:42:56.716Z,19.7
2017-01-13T11:44:07.438Z,19.7
2017-01-13T11:45:17.771Z,19.7
2017-01-13T11:46:27.311Z,19.6
2017-01-13T11:47:37.240Z,19.6
2017-01-13T11:48:47.564Z,19.79
2017-01-13T11:49:57.525Z,19.7
2017-01-13T11:51:07.471Z,19.7
2017-01-13T11:52:17.825Z,19.31
2017-01-13T11:53:28.152Z,19.5
2017-01-13T11:54:38.885Z,19.5
2017-01-13T11:55:49.596Z,19.42
2017-01-13T11:57:00.398Z,19.89
2017-01-13T11:58:11.173Z,19.6
2017-01-13T11:59:21.900Z,19.7
2017-01-13T12:00:32.249Z,19.7
2017-01-13T12:01:42.966Z,19.7
2017-01-13T12:02:53.301Z,19.6
2017-01-13T12:04:03.624Z,19.7
2017-01-13T12:05:14.357Z,19.7
2017-01-13T12:06:24.277Z,19.7
2017-01-13T12:07:35.060Z,19.89
2017-01-13T12:08:45.823Z,19.7
2017-01-13T12:09:56.412Z,19.79
2017-01-13T12:11:07.162Z,19.7
2017-01-13T12:12:17.533Z,19.6
2017-01-13T12:13:27.494Z,19.7
2017-01-13T12:14:37.836Z,19.7
2017-01-13T12:15:48.598Z,19.6
2017-01-13T12:16:58.578Z,19.7
2017-01-13T12:18:09.152Z,19.6
2017-01-13T12:19:19.909Z,19.79
2017-01-13T12:20:30.249Z,19.7
2017-01-13T12:21:40.620Z,19.79
2017-01-13T12:22:51.606Z,19.79
2017-01-13T12:24:02.346Z,19.79
2017-01-13T12:25:12.697Z,19.6
2017-01-13T12:26:23.477Z,19.79
2017-01-13T12:27:33.817Z,19.79
2017-01-13T12:28:44.255Z,19.79
2017-01-13T12:29:54.646Z,19.7
2017-01-13T12:31:05.398Z,19.5
2017-01-13T12:32:14.985Z,19.79
2017-01-13T12:33:25.782Z,19.89
2017-01-13T12:34:36.521Z,19.89
2017-01-13T12:35:47.273Z,19.89
2017-01-13T12:36:58.051Z,19.5
2017-01-13T12:38:07.998Z,19.79
2017-01-13T12:39:18.759Z,19.7
2017-01-13T12:40:28.704Z,19.89
2017-01-13T12:41:38.733Z,19.89
2017-01-13T12:42:49.481Z,19.79
2017-01-13T12:43:59.826Z,19.5
2017-01-13T12:45:10.208Z,19.6
2017-01-13T12:46:20.973Z,19.6
2017-01-13T12:47:31.328Z,19.79
2017-01-13T12:48:42.054Z,19.6
2017-01-13T12:49:51.997Z,19.98
2017-01-13T12:51:02.739Z,19.89
2017-01-13T12:52:13.097Z,19.6
2017-01-13T12:53:23.028Z,19.7
2017-01-13T12:54:32.982Z,19.6
2017-01-13T12:55:43.389Z,19.6
2017-01-13T12:56:54.138Z,19.7
2017-01-13T12:58:04.855Z,19.89
2017-01-13T12:59:14.816Z,19.79
2017-01-13T13:00:25.552Z,19.6
2017-01-13T13:01:35.514Z,19.79
2017-01-13T13:02:45.859Z,19.79
2017-01-13T13:03:56.596Z,19.7
2017-01-13T13:05:06.944Z,19.7
2017-01-13T13:06:17.292Z,19.89
2017-01-13T13:07:27.238Z,19.5
2017-01-13T13:08:37.974Z,19.6
2017-01-13T13:09:48.938Z,19.79
2017-01-13T13:10:59.680Z,19.6
2017-01-13T13:12:09.623Z,19.6
2017-01-13T13:13:20.374Z,19.7
2017-01-13T13:14:31.123Z,19.79
2017-01-13T13:15:41.511Z,19.7
2017-01-13T13:16:52.191Z,19.6
2017-01-13T13:18:02.916Z,19.7
2017-01-13T13:19:13.248Z,19.79
2017-01-13T13:20:23.180Z,19.79
2017-01-13T13:21:33.517Z,19.6
2017-01-13T13:22:44.243Z,19.7
2017-01-13T13:23:54.560Z,19.6
2017-01-13T13:25:04.521Z,19.79
2017-01-13T13:26:14.841Z,19.59
2017-01-13T13:27:25.173Z,19.7
2017-01-13T13:28:34.720Z,19.6
2017-01-13T13:29:45.443Z,19.6
2017-01-13T13:30:56.199Z,19.7
2017-01-13T13:32:06.532Z,19.7
2017-01-13T13:33:16.930Z,19.79
2017-01-13T13:34:27.293Z,19.7
2017-01-13T13:35:37.850Z,19.7
2017-01-13T13:36:48.455Z,19.7
2017-01-13T13:37:59.740Z,19.7
2017-01-13T13:39:10.088Z,19.7
2017-01-13T13:40:20.058Z,19.7
2017-01-13T13:41:30.403Z,19.79
2017-01-13T13:42:40.361Z,19.7
2017-01-13T13:43:51.114Z,19.6
2017-01-13T13:45:01.449Z,19.7
2017-01-13T13:46:11.404Z,19.7
2017-01-13T13:47:21.763Z,19.7
2017-01-13T13:48:32.501Z,19.79
2017-01-13T13:49:42.450Z,19.79
2017-01-13T13:50:52.791Z,19.79
2017-01-13T13:52:03.174Z,19.89
2017-01-13T13:53:13.908Z,19.79
2017-01-13T13:54:24.238Z,19.79
2017-01-13T13:55:33.777Z,19.89
2017-01-13T13:56:44.085Z,19.79
2017-01-13T13:57:53.611Z,19.6
2017-01-13T13:59:03.960Z,19.7
2017-01-13T14:00:14.702Z,19.6
2017-01-13T14:01:25.425Z,19.7
2017-01-13T14:02:36.147Z,19.7
2017-01-13T14:03:46.865Z,19.6
2017-01-13T14:04:57.592Z,19.7
2017-01-13T14:06:07.933Z,19.79
2017-01-13T14:07:18.260Z,19.5
2017-01-13T14:08:28.197Z,19.79
2017-01-13T14:09:38.532Z,19.5
2017-01-13T14:10:49.255Z,19.5
2017-01-13T14:11:59.972Z,19.79
2017-01-13T14:13:10.718Z,19.49
2017-01-13T14:14:21.447Z,19.6
2017-01-13T14:15:32.158Z,19.88
2017-01-13T14:16:41.313Z,19.6
2017-01-13T14:17:51.656Z,19.79
2017-01-13T14:19:01.988Z,19.79
2017-01-13T14:20:11.941Z,19.59
2017-01-13T14:21:21.886Z,19.6
2017-01-13T14:22:32.215Z,19.6
2017-01-13T14:23:42.538Z,19.79
2017-01-13T14:24:52.865Z,19.5
2017-01-13T14:26:03.598Z,19.5
2017-01-13T14:27:14.373Z,19.6
2017-01-13T14:28:25.121Z,19.79
2017-01-13T14:29:35.042Z,19.79
2017-01-13T14:30:44.963Z,19.78
2017-01-13T14:31:55.285Z,19.78
2017-01-13T14:33:05.612Z,19.89
2017-01-13T14:34:16.371Z,19.6
2017-01-13T14:35:27.091Z,20.17
2017-01-13T14:36:37.814Z,19.89
2017-01-13T14:37:48.237Z,20.08
2017-01-13T14:38:58.980Z,20.17
2017-01-13T14:40:09.299Z,20.17
2017-01-13T14:41:19.616Z,19.97
2017-01-13T14:42:29.533Z,19.98
2017-01-13T14:43:39.889Z,20.26
2017-01-13T14:44:50.222Z,20.26
2017-01-13T14:46:00.573Z,19.97
2017-01-13T14:47:10.510Z,19.97
2017-01-13T14:48:20.437Z,20.17
2017-01-13T14:49:30.769Z,20.17
2017-01-13T14:50:41.511Z,20.08
2017-01-13T14:51:51.861Z,20.07
2017-01-13T14:53:02.181Z,20.17
2017-01-13T14:54:12.903Z,20.17
2017-01-13T14:55:23.598Z,20.17
2017-01-13T14:56:33.900Z,20.07
2017-01-13T14:57:44.238Z,20.07
2017-01-13T14:58:54.544Z,19.97
2017-01-13T15:00:04.864Z,20.26
2017-01-13T15:01:14.769Z,20.26
2017-01-13T15:02:24.721Z,20.26
2017-01-13T15:03:34.259Z,20.26
2017-01-13T15:04:44.193Z,20.37
2017-01-13T15:05:54.923Z,20.36
2017-01-13T15:07:04.875Z,20.45
2017-01-13T15:08:15.825Z,20.26
2017-01-13T15:09:26.138Z,20.26
2017-01-13T15:10:36.465Z,20.26
2017-01-13T15:11:47.189Z,20.26
2017-01-13T15:12:57.114Z,20.45
2017-01-13T15:14:07.611Z,20.55
2017-01-13T15:15:17.545Z,20.55